LHSM/SOB METAR and TAF weather

Enter ICAO airport designator
Station Type Date Time Source
LHSM METAR 2019/10/14 05:45 UTC NOAA

LHSM 140545Z AUTO 00000KT 1300 R16/P1500 BR VV004 08/08 Q1020


Station Type Date Time Source
LHSM Decoded METAR 2019/10/14 05:45 UTC NOAA

Station name not available
Oct 14, 2019 - 01:45 AM EDT / 2019.10.14 0545 UTC
Wind: Calm:0
Visibility: less than 1 mile:0
Sky conditions: obscured
Weather: mist
Temperature: 46 F (8 C)
Dew Point: 46 F (8 C)
Relative Humidity: 100%
Pressure (altimeter): 30.12 in. Hg (1020 hPa)
ob: LHSM 140545Z AUTO 00000KT 1300 R16/P1500 BR VV004 08/08 Q1020
cycle: 6

Station Type Date Time Source
LHSM TAF UTC NOAA

Error!

Example: see airport list